createdAt,value
2023-04-13T00:02:21.468Z,7.46
2023-04-13T00:04:50.884Z,7.43
2023-04-13T00:07:18.761Z,7.38
2023-04-13T00:09:47.439Z,7.33
2023-04-13T00:12:21.377Z,7.33
2023-04-13T00:14:50.986Z,7.29
2023-04-13T00:17:18.068Z,7.21
2023-04-13T00:19:47.985Z,7.15
2023-04-13T00:22:15.582Z,7.11
2023-04-13T00:24:44.170Z,7.02
2023-04-13T00:27:11.140Z,6.93
2023-04-13T00:29:38.404Z,6.95
2023-04-13T00:32:05.444Z,6.95
2023-04-13T00:34:32.388Z,6.90
2023-04-13T00:37:02.168Z,6.89
2023-04-13T00:39:31.375Z,6.88
2023-04-13T00:42:02.264Z,6.88
2023-04-13T00:44:30.816Z,6.86
2023-04-13T00:46:57.813Z,6.87
2023-04-13T00:49:24.780Z,6.88
2023-04-13T00:51:51.711Z,6.85
2023-04-13T00:54:19.045Z,6.82
2023-04-13T00:56:46.179Z,6.74
2023-04-13T00:59:13.179Z,6.70
2023-04-13T01:01:46.896Z,6.73
2023-04-13T01:04:14.162Z,6.72
2023-04-13T01:06:45.103Z,6.67
2023-04-13T01:09:15.553Z,6.62
2023-04-13T01:11:49.427Z,6.62
2023-04-13T01:14:26.359Z,6.61
2023-04-13T01:16:59.224Z,6.53
2023-04-13T01:19:59.846Z,6.46
2023-04-13T01:22:30.525Z,6.34
2023-04-13T01:24:58.015Z,6.27
2023-04-13T01:27:42.350Z,6.22
2023-04-13T01:30:13.596Z,6.20
2023-04-13T01:32:42.264Z,6.26
2023-04-13T01:35:11.906Z,6.29
2023-04-13T01:37:43.349Z,6.27
2023-04-13T01:40:15.192Z,6.24
2023-04-13T01:42:47.910Z,6.28
2023-04-13T01:45:23.556Z,6.30
2023-04-13T01:48:11.847Z,6.32
2023-04-13T01:51:08.679Z,6.35
2023-04-13T01:53:49.204Z,6.33
2023-04-13T01:56:19.355Z,6.31
2023-04-13T01:58:52.049Z,6.36
2023-04-13T02:01:19.812Z,6.40
2023-04-13T02:03:46.959Z,6.43
2023-04-13T02:06:14.644Z,6.44
2023-04-13T02:08:43.033Z,6.49
2023-04-13T02:11:10.303Z,6.55
2023-04-13T02:13:37.890Z,6.58
2023-04-13T02:16:26.138Z,6.60
2023-04-13T02:18:53.072Z,6.59
2023-04-13T02:21:20.844Z,6.56
2023-04-13T02:23:49.415Z,6.53
2023-04-13T02:26:16.544Z,6.51
2023-04-13T02:28:43.570Z,6.48
2023-04-13T02:31:10.529Z,6.53
2023-04-13T02:33:37.854Z,6.59
2023-04-13T02:36:05.462Z,6.57
2023-04-13T02:38:39.720Z,6.55
2023-04-13T02:41:13.656Z,6.58
2023-04-13T02:43:40.818Z,6.60
2023-04-13T02:46:08.864Z,6.63
2023-04-13T02:48:38.757Z,6.67
2023-04-13T02:51:07.061Z,6.57
2023-04-13T02:53:38.112Z,6.60
2023-04-13T02:56:07.799Z,6.67
2023-04-13T02:58:35.252Z,6.61
2023-04-13T03:01:06.705Z,6.57
2023-04-13T03:03:34.796Z,6.51
2023-04-13T03:06:02.149Z,6.55
2023-04-13T03:08:46.368Z,6.57
2023-04-13T03:11:23.635Z,6.62
2023-04-13T03:14:01.601Z,6.69
2023-04-13T03:16:30.701Z,6.72
2023-04-13T03:18:58.220Z,6.75
2023-04-13T03:21:26.296Z,6.79
2023-04-13T03:24:05.392Z,6.82
2023-04-13T03:26:32.697Z,6.87
2023-04-13T03:29:04.203Z,6.92
2023-04-13T03:31:35.288Z,6.99
2023-04-13T03:34:02.388Z,7.04
2023-04-13T03:36:29.706Z,7.12
2023-04-13T03:38:58.110Z,7.19
2023-04-13T03:41:27.690Z,7.23
2023-04-13T03:43:54.663Z,7.29
2023-04-13T03:46:22.080Z,7.33
2023-04-13T03:48:49.493Z,7.36
2023-04-13T03:51:21.873Z,7.38
2023-04-13T03:53:50.831Z,7.46
2023-04-13T03:56:23.903Z,7.53
2023-04-13T03:58:55.441Z,7.60
2023-04-13T04:01:26.075Z,7.64
2023-04-13T04:03:57.240Z,7.68
2023-04-13T04:06:29.480Z,7.74
2023-04-13T04:09:07.517Z,7.75
2023-04-13T04:11:40.699Z,7.75
2023-04-13T04:14:08.849Z,7.84
2023-04-13T04:16:35.943Z,7.88
2023-04-13T04:19:09.466Z,7.88
2023-04-13T04:21:37.004Z,7.89
2023-04-13T04:24:22.776Z,7.94
2023-04-13T04:26:55.174Z,7.97
2023-04-13T04:29:34.197Z,8.01
2023-04-13T04:32:11.134Z,8.04
2023-04-13T04:34:41.014Z,8.08
2023-04-13T04:37:20.229Z,8.11
2023-04-13T04:39:57.886Z,8.17
2023-04-13T04:42:25.959Z,8.20
2023-04-13T04:44:56.497Z,8.26
2023-04-13T04:47:30.663Z,8.27
2023-04-13T04:50:10.038Z,8.34
2023-04-13T04:52:42.688Z,8.41
2023-04-13T04:55:12.616Z,8.47
2023-04-13T04:57:41.476Z,8.57
2023-04-13T05:00:10.896Z,8.63
2023-04-13T05:02:40.207Z,8.74
2023-04-13T05:05:10.453Z,8.88
2023-04-13T05:07:38.373Z,9.01
2023-04-13T05:10:07.784Z,9.14
2023-04-13T05:12:37.934Z,9.23
2023-04-13T05:15:06.497Z,9.36
2023-04-13T05:17:36.416Z,9.47
2023-04-13T05:20:07.294Z,9.56
2023-04-13T05:22:52.991Z,9.66
2023-04-13T05:25:20.070Z,9.78
2023-04-13T05:27:48.088Z,9.89
2023-04-13T05:30:15.173Z,9.97
2023-04-13T05:32:44.120Z,10.10
2023-04-13T05:35:11.704Z,10.22
2023-04-13T05:37:40.208Z,10.29
2023-04-13T05:40:14.124Z,10.34
2023-04-13T05:42:42.781Z,10.39
2023-04-13T05:45:12.228Z,10.47
2023-04-13T05:47:54.685Z,10.57
2023-04-13T05:50:21.777Z,10.70
2023-04-13T05:52:48.796Z,10.80
2023-04-13T05:55:16.475Z,10.91
2023-04-13T05:57:48.478Z,11.02
2023-04-13T06:00:18.964Z,11.15
2023-04-13T06:02:56.924Z,11.29
2023-04-13T06:05:24.349Z,11.41
2023-04-13T06:07:51.770Z,11.55
2023-04-13T06:10:19.655Z,11.63
2023-04-13T06:12:48.777Z,11.70
2023-04-13T06:15:15.822Z,11.80
2023-04-13T06:17:42.915Z,11.86
2023-04-13T06:20:10.954Z,11.92
2023-04-13T06:22:37.937Z,11.97
2023-04-13T06:25:05.569Z,12.02
2023-04-13T06:27:35.358Z,12.12
2023-04-13T06:30:02.674Z,12.23
2023-04-13T06:32:33.201Z,12.43
2023-04-13T06:35:00.743Z,12.64
2023-04-13T06:37:35.180Z,12.85
2023-04-13T06:40:12.929Z,13.08
2023-04-13T06:42:47.272Z,13.33
2023-04-13T06:45:33.826Z,13.53
2023-04-13T06:48:07.073Z,13.65
2023-04-13T06:50:35.326Z,13.79
2023-04-13T06:53:04.068Z,13.91
2023-04-13T06:55:31.241Z,14.03
2023-04-13T06:57:58.736Z,14.12
2023-04-13T07:00:30.036Z,14.18
2023-04-13T07:02:58.903Z,14.24
2023-04-13T07:05:26.369Z,14.25
2023-04-13T07:07:56.388Z,14.22
2023-04-13T07:10:23.642Z,14.25
2023-04-13T07:12:52.229Z,14.31
2023-04-13T07:15:22.261Z,14.26
2023-04-13T07:17:52.600Z,14.25
2023-04-13T07:20:19.781Z,14.28
2023-04-13T07:22:47.937Z,14.30
2023-04-13T07:25:14.997Z,14.32
2023-04-13T07:27:41.842Z,14.32
2023-04-13T07:30:09.221Z,14.31
2023-04-13T07:32:41.493Z,14.29
2023-04-13T07:35:10.186Z,14.30
2023-04-13T07:37:39.145Z,14.25
2023-04-13T07:40:09.048Z,14.22
2023-04-13T07:42:36.796Z,14.21
2023-04-13T07:45:04.018Z,14.20
2023-04-13T07:47:32.573Z,14.19
2023-04-13T07:50:06.304Z,14.20
2023-04-13T07:52:33.879Z,14.19
2023-04-13T07:55:02.838Z,14.19
2023-04-13T07:57:33.577Z,14.24
2023-04-13T08:00:05.156Z,14.30
2023-04-13T08:02:41.811Z,14.33
2023-04-13T08:05:13.594Z,14.37
2023-04-13T08:07:42.189Z,14.43
2023-04-13T08:10:09.712Z,14.52
2023-04-13T08:12:36.765Z,14.57
2023-04-13T08:15:05.912Z,14.65
2023-04-13T08:17:34.083Z,14.69
2023-04-13T08:20:01.243Z,14.76
2023-04-13T08:22:53.304Z,14.84
2023-04-13T08:25:21.212Z,14.93
2023-04-13T08:27:48.201Z,14.93
2023-04-13T08:30:15.273Z,14.98
2023-04-13T08:32:49.566Z,15.02
2023-04-13T08:35:17.482Z,15.08
2023-04-13T08:37:44.542Z,15.12
2023-04-13T08:40:12.202Z,15.16
2023-04-13T08:42:40.915Z,15.18
2023-04-13T08:45:09.223Z,15.22
2023-04-13T08:47:39.347Z,15.24
2023-04-13T08:50:07.655Z,15.25
2023-04-13T08:52:44.150Z,15.28
2023-04-13T08:55:15.694Z,15.38
2023-04-13T08:57:45.427Z,15.46
2023-04-13T09:00:16.281Z,15.47
2023-04-13T09:03:00.586Z,15.54
2023-04-13T09:05:31.744Z,15.64
2023-04-13T09:08:04.709Z,15.79
2023-04-13T09:10:31.657Z,15.97
2023-04-13T09:12:58.603Z,16.15
2023-04-13T09:15:25.894Z,16.32
2023-04-13T09:18:16.204Z,16.51
2023-04-13T09:21:00.184Z,16.63
2023-04-13T09:23:27.229Z,16.80
2023-04-13T09:26:07.908Z,16.94
2023-04-13T09:28:45.502Z,17.06
2023-04-13T09:31:13.856Z,17.09
2023-04-13T09:33:49.802Z,17.20
2023-04-13T09:36:17.260Z,17.36
2023-04-13T09:38:45.404Z,17.55
2023-04-13T09:41:12.532Z,17.69
2023-04-13T09:43:39.697Z,17.79
2023-04-13T09:46:16.243Z,17.88
2023-04-13T09:48:46.418Z,18.01
2023-04-13T09:51:13.389Z,18.12
2023-04-13T09:53:42.986Z,18.25
2023-04-13T09:56:09.979Z,18.39
2023-04-13T09:58:47.160Z,18.49
2023-04-13T10:01:17.175Z,18.59
2023-04-13T10:03:44.422Z,18.67
2023-04-13T10:06:11.676Z,18.82
2023-04-13T10:08:46.361Z,18.78
2023-04-13T10:11:17.307Z,18.87
2023-04-13T10:13:58.198Z,18.91
2023-04-13T10:16:44.078Z,18.91
2023-04-13T10:19:18.377Z,18.96
2023-04-13T10:21:47.526Z,18.99
2023-04-13T10:24:14.705Z,19.02
2023-04-13T10:26:42.118Z,18.96
2023-04-13T10:29:11.601Z,18.95
2023-04-13T10:31:46.652Z,18.93
2023-04-13T10:34:27.671Z,18.92
2023-04-13T10:37:14.985Z,18.84
2023-04-13T10:39:42.074Z,18.76
2023-04-13T10:42:10.004Z,18.77
2023-04-13T10:44:49.700Z,18.83
2023-04-13T10:47:18.330Z,18.77
2023-04-13T10:49:46.802Z,18.85
2023-04-13T10:52:14.289Z,18.92
2023-04-13T10:54:41.981Z,18.90
2023-04-13T10:57:11.254Z,18.93
2023-04-13T10:59:57.185Z,19.03
2023-04-13T11:02:27.170Z,19.04
2023-04-13T11:04:54.318Z,18.96
2023-04-13T11:07:23.432Z,18.85
2023-04-13T11:09:53.477Z,18.94
2023-04-13T11:12:20.505Z,19.01
2023-04-13T11:14:47.974Z,18.99
2023-04-13T11:17:16.715Z,18.98
2023-04-13T11:19:53.883Z,18.99
2023-04-13T11:22:27.646Z,18.90
2023-04-13T11:25:08.579Z,18.87
2023-04-13T11:27:35.478Z,18.73
2023-04-13T11:30:06.754Z,18.65
2023-04-13T11:32:34.398Z,18.47
2023-04-13T11:35:12.287Z,18.30
2023-04-13T11:37:41.136Z,18.22
2023-04-13T11:40:20.432Z,18.24
2023-04-13T11:42:53.392Z,18.21
2023-04-13T11:45:22.485Z,18.06
2023-04-13T11:47:50.402Z,17.95
2023-04-13T11:50:18.056Z,17.75
2023-04-13T11:52:46.655Z,17.62
2023-04-13T11:55:22.541Z,17.50
2023-04-13T11:57:50.814Z,17.48
2023-04-13T12:00:21.560Z,17.50
2023-04-13T12:03:01.101Z,17.48
2023-04-13T12:05:31.547Z,17.43
2023-04-13T12:07:59.478Z,17.34
2023-04-13T12:10:38.342Z,17.33
2023-04-13T12:13:18.473Z,17.30
2023-04-13T12:16:07.776Z,17.27
2023-04-13T12:18:46.106Z,17.18
2023-04-13T12:21:16.442Z,17.17
2023-04-13T12:23:57.291Z,17.13
2023-04-13T12:29:14.407Z,17.09
2023-04-13T12:31:41.623Z,17.16
2023-04-13T12:34:08.633Z,17.19
2023-04-13T12:36:36.884Z,17.13
2023-04-13T12:39:04.601Z,17.11
2023-04-13T12:41:32.978Z,17.06
2023-04-13T12:44:00.104Z,17.04
2023-04-13T12:46:27.013Z,16.93
2023-04-13T12:48:54.189Z,16.95
2023-04-13T12:51:24.192Z,16.95
2023-04-13T12:53:51.259Z,16.94
2023-04-13T12:56:18.485Z,16.93
2023-04-13T12:58:45.479Z,16.85
2023-04-13T13:01:14.103Z,16.80
2023-04-13T13:03:41.465Z,16.73
2023-04-13T13:06:08.586Z,16.63
2023-04-13T13:08:38.365Z,16.52
2023-04-13T13:11:08.405Z,16.46
2023-04-13T13:13:35.972Z,16.39
2023-04-13T13:16:03.689Z,16.36
2023-04-13T13:18:42.709Z,16.34
2023-04-13T13:21:17.162Z,16.32
2023-04-13T13:23:45.449Z,16.40
2023-04-13T13:26:23.702Z,16.43
2023-04-13T13:28:52.350Z,16.46
2023-04-13T13:31:19.707Z,16.43
2023-04-13T13:33:46.948Z,16.43
2023-04-13T13:36:14.718Z,16.40
2023-04-13T13:38:43.121Z,16.35
2023-04-13T13:41:10.445Z,16.33
2023-04-13T13:43:38.041Z,16.29
2023-04-13T13:46:08.373Z,16.25
2023-04-13T13:48:37.745Z,16.18
2023-04-13T13:51:25.026Z,16.17
2023-04-13T13:53:51.910Z,16.16
2023-04-13T13:56:19.142Z,16.11
2023-04-13T13:58:46.149Z,16.09
2023-04-13T14:01:13.096Z,16.02
2023-04-13T14:03:40.117Z,15.95
2023-04-13T14:06:07.820Z,15.89
2023-04-13T14:08:35.038Z,15.86
2023-04-13T14:11:03.164Z,15.80
2023-04-13T14:13:31.128Z,15.72
2023-04-13T14:15:58.171Z,15.66
2023-04-13T14:18:25.218Z,15.58
2023-04-13T14:20:52.224Z,15.51
2023-04-13T14:23:19.152Z,15.44
2023-04-13T14:25:46.463Z,15.34
2023-04-13T14:28:14.728Z,15.21
2023-04-13T14:30:45.261Z,15.14
2023-04-13T14:33:14.746Z,15.11
2023-04-13T14:35:41.708Z,15.10
2023-04-13T14:38:08.673Z,15.08
2023-04-13T14:40:36.008Z,15.01
2023-04-13T14:43:02.963Z,14.91
2023-04-13T14:45:29.846Z,14.85
2023-04-13T14:47:56.766Z,14.80
2023-04-13T14:50:24.332Z,14.75
2023-04-13T14:52:52.431Z,14.73
2023-04-13T14:55:19.480Z,14.67
2023-04-13T14:57:47.293Z,14.59
2023-04-13T15:00:18.180Z,14.52
2023-04-13T15:02:45.391Z,14.50
2023-04-13T15:05:12.783Z,14.49
2023-04-13T15:07:40.290Z,14.44
2023-04-13T15:10:08.601Z,14.42
2023-04-13T15:12:35.655Z,14.37
2023-04-13T15:15:02.852Z,14.29
2023-04-13T15:17:30.840Z,14.20
2023-04-13T15:19:57.808Z,14.13
2023-04-13T15:22:24.857Z,14.08
2023-04-13T15:24:51.867Z,14.03
2023-04-13T15:27:18.795Z,13.92
2023-04-13T15:29:45.924Z,13.82
2023-04-13T15:32:12.854Z,13.77
2023-04-13T15:34:40.707Z,13.67
2023-04-13T15:37:07.689Z,13.58
2023-04-13T15:39:34.748Z,13.53
2023-04-13T15:42:02.381Z,13.48
2023-04-13T15:44:29.362Z,13.42
2023-04-13T15:46:56.324Z,13.36
2023-04-13T15:49:23.264Z,13.33
2023-04-13T15:51:50.211Z,13.25
2023-04-13T15:54:17.391Z,13.21
2023-04-13T15:56:44.407Z,13.13
2023-04-13T15:59:11.503Z,13.06
2023-04-13T16:01:48.726Z,13.01
2023-04-13T16:04:16.448Z,12.93
2023-04-13T16:06:43.637Z,12.85
2023-04-13T16:09:10.938Z,12.81
2023-04-13T16:11:42.258Z,12.74
2023-04-13T16:14:09.231Z,12.67
2023-04-13T16:16:46.916Z,12.63
2023-04-13T16:19:14.054Z,12.54
2023-04-13T16:21:44.030Z,12.48
2023-04-13T16:24:11.104Z,12.42
2023-04-13T16:26:38.227Z,12.36
2023-04-13T16:29:05.381Z,12.29
2023-04-13T16:31:32.473Z,12.26
2023-04-13T16:33:59.506Z,12.18
2023-04-13T16:36:27.413Z,12.13
2023-04-13T16:38:54.501Z,12.02
2023-04-13T16:41:21.412Z,11.97
2023-04-13T16:43:48.335Z,11.91
2023-04-13T16:46:16.209Z,11.86
2023-04-13T16:48:43.160Z,11.80
2023-04-13T16:51:10.068Z,11.73
2023-04-13T16:53:37.100Z,11.69
2023-04-13T16:56:04.119Z,11.64
2023-04-13T16:58:31.549Z,11.62
2023-04-13T17:00:58.926Z,11.57
2023-04-13T17:03:29.097Z,11.53
2023-04-13T17:05:56.408Z,11.48
2023-04-13T17:08:23.829Z,11.43
2023-04-13T17:10:54.403Z,11.38
2023-04-13T17:13:21.800Z,11.34
2023-04-13T17:15:48.876Z,11.29
2023-04-13T17:18:15.840Z,11.26
2023-04-13T17:20:42.733Z,11.20
2023-04-13T17:23:09.823Z,11.15
2023-04-13T17:25:41.474Z,11.11
2023-04-13T17:28:08.509Z,11.03
2023-04-13T17:30:35.788Z,10.97
2023-04-13T17:33:04.510Z,10.94
2023-04-13T17:35:31.545Z,10.88
2023-04-13T17:37:58.491Z,10.86
2023-04-13T17:40:25.587Z,10.82
2023-04-13T17:42:52.572Z,10.77
2023-04-13T17:45:19.731Z,10.73
2023-04-13T17:48:12.102Z,10.68
2023-04-13T17:50:39.200Z,10.64
2023-04-13T17:53:06.060Z,10.56
2023-04-13T17:55:36.223Z,10.50
2023-04-13T17:58:03.105Z,10.48
2023-04-13T18:00:30.202Z,10.46
2023-04-13T18:02:58.356Z,10.41
2023-04-13T18:05:26.678Z,10.35
2023-04-13T18:07:56.544Z,10.29
2023-04-13T18:10:24.653Z,10.24
2023-04-13T18:12:51.806Z,10.20
2023-04-13T18:15:18.735Z,10.14
2023-04-13T18:17:46.063Z,10.09
2023-04-13T18:20:13.103Z,10.06
2023-04-13T18:22:40.033Z,10.01
2023-04-13T18:25:07.220Z,9.97
2023-04-13T18:27:34.733Z,9.89
2023-04-13T18:30:01.870Z,9.85
2023-04-13T18:32:30.952Z,9.82
2023-04-13T18:34:58.203Z,9.76
2023-04-13T18:37:25.436Z,9.71
2023-04-13T18:39:53.981Z,9.65
2023-04-13T18:42:21.021Z,9.65
2023-04-13T18:44:48.071Z,9.62
2023-04-13T18:47:15.068Z,9.58
2023-04-13T18:49:42.068Z,9.53
2023-04-13T18:52:09.003Z,9.46
2023-04-13T18:54:36.586Z,9.42
2023-04-13T18:57:03.775Z,9.36
2023-04-13T18:59:30.802Z,9.30
2023-04-13T19:01:57.837Z,9.26
2023-04-13T19:04:25.097Z,9.23
2023-04-13T19:06:52.492Z,9.18
2023-04-13T19:09:19.508Z,9.09
2023-04-13T19:11:49.479Z,9.04
2023-04-13T19:14:16.561Z,8.99
2023-04-13T19:16:45.690Z,8.94
2023-04-13T19:19:15.836Z,8.91
2023-04-13T19:21:43.014Z,8.84
2023-04-13T19:24:13.099Z,8.83
2023-04-13T19:26:40.923Z,8.76
2023-04-13T19:29:12.680Z,8.72
2023-04-13T19:31:41.485Z,8.69
2023-04-13T19:34:08.984Z,8.64
2023-04-13T19:36:37.059Z,8.59
2023-04-13T19:39:05.803Z,8.57
2023-04-13T19:41:33.009Z,8.50
2023-04-13T19:44:00.701Z,8.50
2023-04-13T19:46:28.651Z,8.46
2023-04-13T19:48:58.873Z,8.44
2023-04-13T19:51:29.456Z,8.38
2023-04-13T19:53:57.727Z,8.34
2023-04-13T19:56:25.270Z,8.31
2023-04-13T19:58:55.324Z,8.29
2023-04-13T20:01:22.743Z,8.23
2023-04-13T20:03:50.269Z,8.18
2023-04-13T20:06:17.668Z,8.14
2023-04-13T20:08:45.000Z,8.10
2023-04-13T20:11:12.126Z,8.05
2023-04-13T20:13:39.846Z,8.06
2023-04-13T20:16:06.997Z,8.01
2023-04-13T20:18:34.116Z,7.95
2023-04-13T20:21:01.030Z,7.89
2023-04-13T20:23:29.842Z,7.84
2023-04-13T20:25:57.011Z,7.80
2023-04-13T20:28:24.151Z,7.77
2023-04-13T20:30:51.549Z,7.74
2023-04-13T20:33:18.561Z,7.68
2023-04-13T20:35:45.754Z,7.62
2023-04-13T20:38:14.212Z,7.58
2023-04-13T20:40:41.905Z,7.55
2023-04-13T20:43:11.000Z,7.52
2023-04-13T20:45:38.440Z,7.49
2023-04-13T20:50:36.541Z,7.38
2023-04-13T20:53:04.900Z,7.33
2023-04-13T20:55:32.555Z,7.29
2023-04-13T20:57:59.452Z,7.25
2023-04-13T21:00:27.606Z,7.22
2023-04-13T21:02:55.051Z,7.17
2023-04-13T21:05:22.478Z,7.12
2023-04-13T21:07:50.217Z,7.06
2023-04-13T21:10:17.816Z,7.02
2023-04-13T21:12:44.912Z,6.97
2023-04-13T21:15:12.022Z,6.93
2023-04-13T21:17:39.155Z,6.89
2023-04-13T21:20:08.943Z,6.86
2023-04-13T21:22:36.522Z,6.85
2023-04-13T21:25:04.148Z,6.79
2023-04-13T21:27:31.126Z,6.76
2023-04-13T21:29:58.964Z,6.74
2023-04-13T21:32:26.014Z,6.71
2023-04-13T21:34:55.110Z,6.69
2023-04-13T21:37:22.081Z,6.63
2023-04-13T21:39:49.094Z,6.56
2023-04-13T21:42:17.022Z,6.51
2023-04-13T21:44:43.990Z,6.50
2023-04-13T21:47:10.820Z,6.45
2023-04-13T21:49:37.727Z,6.39
2023-04-13T21:52:04.711Z,6.34
2023-04-13T21:54:31.653Z,6.30
2023-04-13T21:56:58.832Z,6.29
2023-04-13T21:59:27.402Z,6.23
2023-04-13T22:01:54.911Z,6.20
2023-04-13T22:04:22.286Z,6.15
2023-04-13T22:06:49.422Z,6.14
2023-04-13T22:09:16.541Z,6.10
2023-04-13T22:11:43.464Z,6.04
2023-04-13T22:14:10.820Z,6.02
2023-04-13T22:16:37.755Z,6.01
2023-04-13T22:19:04.718Z,5.97
2023-04-13T22:21:34.407Z,5.93
2023-04-13T22:24:01.330Z,5.86
2023-04-13T22:26:28.360Z,5.78
2023-04-13T22:28:55.735Z,5.79
2023-04-13T22:31:22.868Z,5.75
2023-04-13T22:33:49.801Z,5.69
2023-04-13T22:36:20.629Z,5.68
2023-04-13T22:38:47.983Z,5.65
2023-04-13T22:41:14.925Z,5.58
2023-04-13T22:43:41.879Z,5.56
2023-04-13T22:46:08.846Z,5.54
2023-04-13T22:48:36.082Z,5.51
2023-04-13T22:51:05.869Z,5.44
2023-04-13T22:53:32.961Z,5.41
2023-04-13T22:56:00.872Z,5.34
2023-04-13T22:58:28.077Z,5.29
2023-04-13T23:00:55.459Z,5.27
2023-04-13T23:03:22.640Z,5.21
2023-04-13T23:05:49.981Z,5.19
2023-04-13T23:08:17.001Z,5.14
2023-04-13T23:10:43.858Z,5.09
2023-04-13T23:13:10.957Z,5.05
2023-04-13T23:15:39.437Z,5.03
2023-04-13T23:18:06.539Z,4.97
2023-04-13T23:20:33.462Z,4.93
2023-04-13T23:23:00.521Z,4.89
2023-04-13T23:25:27.554Z,4.86
2023-04-13T23:27:54.588Z,4.80
2023-04-13T23:30:21.573Z,4.77
2023-04-13T23:32:48.496Z,4.73
2023-04-13T23:35:15.462Z,4.75
2023-04-13T23:37:43.533Z,4.73
2023-04-13T23:40:10.999Z,4.72
2023-04-13T23:42:39.337Z,4.67
2023-04-13T23:45:07.483Z,4.68
2023-04-13T23:47:34.544Z,4.60
2023-04-13T23:50:01.763Z,4.56
2023-04-13T23:52:29.483Z,4.50
2023-04-13T23:54:57.168Z,4.44
2023-04-13T23:57:24.111Z,4.37
2023-04-13T23:59:57.364Z,4.37
